sensor_id;sensor_type;location;lat;lon;timestamp;temperature;humidity
5980;DHT22;3016;50.308;8.258;2023-07-16T00:02:46;19.00;70.40
5980;DHT22;3016;50.308;8.258;2023-07-16T00:05:50;19.00;67.20
5980;DHT22;3016;50.308;8.258;2023-07-16T00:08:51;18.90;62.20
5980;DHT22;3016;50.308;8.258;2023-07-16T00:11:52;18.90;48.60
5980;DHT22;3016;50.308;8.258;2023-07-16T00:14:52;18.80;39.10
5980;DHT22;3016;50.308;8.258;2023-07-16T00:17:53;18.80;38.70
5980;DHT22;3016;50.308;8.258;2023-07-16T00:20:55;18.80;31.80
5980;DHT22;3016;50.308;8.258;2023-07-16T00:23:56;18.70;30.80
5980;DHT22;3016;50.308;8.258;2023-07-16T00:26:57;18.60;35.50
5980;DHT22;3016;50.308;8.258;2023-07-16T00:29:58;18.60;36.50
5980;DHT22;3016;50.308;8.258;2023-07-16T00:32:58;18.50;36.30
5980;DHT22;3016;50.308;8.258;2023-07-16T00:35:59;18.50;35.20
5980;DHT22;3016;50.308;8.258;2023-07-16T00:39:00;18.50;27.50
5980;DHT22;3016;50.308;8.258;2023-07-16T00:42:00;18.50;18.90
5980;DHT22;3016;50.308;8.258;2023-07-16T00:45:01;18.50;13.70
5980;DHT22;3016;50.308;8.258;2023-07-16T00:48:04;18.50;7.20
5980;DHT22;3016;50.308;8.258;2023-07-16T00:51:06;18.50;12.60
5980;DHT22;3016;50.308;8.258;2023-07-16T00:54:07;18.50;15.80
5980;DHT22;3016;50.308;8.258;2023-07-16T00:57:08;18.40;18.80
5980;DHT22;3016;50.308;8.258;2023-07-16T01:00:09;18.30;8.20
5980;DHT22;3016;50.308;8.258;2023-07-16T01:03:12;18.30;8.00
5980;DHT22;3016;50.308;8.258;2023-07-16T01:09:37;18.30;4.00
5980;DHT22;3016;50.308;8.258;2023-07-16T01:12:42;18.20;1.00
5980;DHT22;3016;50.308;8.258;2023-07-16T01:15:43;18.20;5.10
5980;DHT22;3016;50.308;8.258;2023-07-16T01:18:43;18.30;10.90
5980;DHT22;3016;50.308;8.258;2023-07-16T01:21:50;18.30;12.00
5980;DHT22;3016;50.308;8.258;2023-07-16T01:25:18;18.20;5.10
5980;DHT22;3016;50.308;8.258;2023-07-16T01:31:55;18.10;8.50
5980;DHT22;3016;50.308;8.258;2023-07-16T01:34:57;18.10;15.50
5980;DHT22;3016;50.308;8.258;2023-07-16T01:37:58;18.10;13.00
5980;DHT22;3016;50.308;8.258;2023-07-16T01:40:59;18.10;16.40
5980;DHT22;3016;50.308;8.258;2023-07-16T01:43:59;18.00;15.50
5980;DHT22;3016;50.308;8.258;2023-07-16T01:50:11;17.80;13.60
5980;DHT22;3016;50.308;8.258;2023-07-16T01:53:12;17.80;11.60
5980;DHT22;3016;50.308;8.258;2023-07-16T01:56:12;17.80;15.80
5980;DHT22;3016;50.308;8.258;2023-07-16T01:59:13;17.80;12.40
5980;DHT22;3016;50.308;8.258;2023-07-16T02:02:14;17.70;13.60
5980;DHT22;3016;50.308;8.258;2023-07-16T02:05:15;17.60;15.20
5980;DHT22;3016;50.308;8.258;2023-07-16T02:08:17;17.70;11.20
5980;DHT22;3016;50.308;8.258;2023-07-16T02:11:18;17.70;2.00
5980;DHT22;3016;50.308;8.258;2023-07-16T02:14:18;17.70;4.70
5980;DHT22;3016;50.308;8.258;2023-07-16T02:17:19;17.60;7.70
5980;DHT22;3016;50.308;8.258;2023-07-16T02:20:20;17.50;4.90
5980;DHT22;3016;50.308;8.258;2023-07-16T02:23:21;17.50;2.10
5980;DHT22;3016;50.308;8.258;2023-07-16T02:26:21;17.50;1.00
5980;DHT22;3016;50.308;8.258;2023-07-16T02:29:22;17.50;1.00
5980;DHT22;3016;50.308;8.258;2023-07-16T02:32:23;17.50;1.20
5980;DHT22;3016;50.308;8.258;2023-07-16T02:35:23;17.50;1.00
5980;DHT22;3016;50.308;8.258;2023-07-16T02:38:24;17.40;1.00
5980;DHT22;3016;50.308;8.258;2023-07-16T02:41:25;17.50;1.00
5980;DHT22;3016;50.308;8.258;2023-07-16T02:44:26;17.30;1.00
5980;DHT22;3016;50.308;8.258;2023-07-16T02:47:26;17.30;1.00
5980;DHT22;3016;50.308;8.258;2023-07-16T02:50:27;17.20;6.90
5980;DHT22;3016;50.308;8.258;2023-07-16T02:53:28;17.10;8.60
5980;DHT22;3016;50.308;8.258;2023-07-16T02:56:28;17.10;4.90
5980;DHT22;3016;50.308;8.258;2023-07-16T02:59:29;17.00;7.20
5980;DHT22;3016;50.308;8.258;2023-07-16T03:02:30;16.90;12.00
5980;DHT22;3016;50.308;8.258;2023-07-16T03:05:30;17.00;6.90
5980;DHT22;3016;50.308;8.258;2023-07-16T03:08:31;16.90;13.40
5980;DHT22;3016;50.308;8.258;2023-07-16T03:11:32;16.70;14.90
5980;DHT22;3016;50.308;8.258;2023-07-16T03:14:32;16.70;17.30
5980;DHT22;3016;50.308;8.258;2023-07-16T03:17:33;16.50;21.90
5980;DHT22;3016;50.308;8.258;2023-07-16T03:20:34;16.40;21.90
5980;DHT22;3016;50.308;8.258;2023-07-16T03:23:34;16.30;27.80
5980;DHT22;3016;50.308;8.258;2023-07-16T03:26:35;16.20;27.80
5980;DHT22;3016;50.308;8.258;2023-07-16T03:29:36;16.10;31.70
5980;DHT22;3016;50.308;8.258;2023-07-16T03:32:36;16.10;35.30
5980;DHT22;3016;50.308;8.258;2023-07-16T03:35:37;16.00;34.70
5980;DHT22;3016;50.308;8.258;2023-07-16T03:38:38;16.00;37.40
5980;DHT22;3016;50.308;8.258;2023-07-16T03:41:38;15.90;35.90
5980;DHT22;3016;50.308;8.258;2023-07-16T03:44:39;15.90;37.20
5980;DHT22;3016;50.308;8.258;2023-07-16T03:47:40;15.90;37.90
5980;DHT22;3016;50.308;8.258;2023-07-16T03:50:40;15.80;38.30
5980;DHT22;3016;50.308;8.258;2023-07-16T03:53:41;15.80;37.40
5980;DHT22;3016;50.308;8.258;2023-07-16T03:56:42;15.70;40.10
5980;DHT22;3016;50.308;8.258;2023-07-16T03:59:42;15.70;44.30
5980;DHT22;3016;50.308;8.258;2023-07-16T04:02:43;15.70;49.20
5980;DHT22;3016;50.308;8.258;2023-07-16T04:05:44;15.70;51.00
5980;DHT22;3016;50.308;8.258;2023-07-16T04:08:45;15.70;50.00
5980;DHT22;3016;50.308;8.258;2023-07-16T04:11:45;15.70;47.20
5980;DHT22;3016;50.308;8.258;2023-07-16T04:14:46;15.70;49.70
5980;DHT22;3016;50.308;8.258;2023-07-16T04:17:47;15.70;46.70
5980;DHT22;3016;50.308;8.258;2023-07-16T04:20:48;15.80;47.90
5980;DHT22;3016;50.308;8.258;2023-07-16T04:23:49;15.70;44.80
5980;DHT22;3016;50.308;8.258;2023-07-16T04:26:49;15.80;46.80
5980;DHT22;3016;50.308;8.258;2023-07-16T04:29:50;15.80;48.60
5980;DHT22;3016;50.308;8.258;2023-07-16T04:32:51;15.80;45.80
5980;DHT22;3016;50.308;8.258;2023-07-16T04:35:51;15.70;45.00
5980;DHT22;3016;50.308;8.258;2023-07-16T04:38:52;15.80;47.50
5980;DHT22;3016;50.308;8.258;2023-07-16T04:41:53;15.80;49.50
5980;DHT22;3016;50.308;8.258;2023-07-16T04:44:54;15.80;44.20
5980;DHT22;3016;50.308;8.258;2023-07-16T04:47:54;15.90;36.20
5980;DHT22;3016;50.308;8.258;2023-07-16T04:50:55;16.10;21.00
5980;DHT22;3016;50.308;8.258;2023-07-16T04:53:56;16.20;18.80
5980;DHT22;3016;50.308;8.258;2023-07-16T04:56:56;16.30;17.60
5980;DHT22;3016;50.308;8.258;2023-07-16T04:59:57;16.50;5.50
5980;DHT22;3016;50.308;8.258;2023-07-16T05:02:58;16.70;2.60
5980;DHT22;3016;50.308;8.258;2023-07-16T05:05:59;16.80;1.00
5980;DHT22;3016;50.308;8.258;2023-07-16T05:08:59;17.00;1.00
5980;DHT22;3016;50.308;8.258;2023-07-16T05:12:00;17.10;1.00
5980;DHT22;3016;50.308;8.258;2023-07-16T05:15:01;17.10;1.00
5980;DHT22;3016;50.308;8.258;2023-07-16T05:18:01;17.20;1.00
5980;DHT22;3016;50.308;8.258;2023-07-16T05:21:02;17.10;1.00
5980;DHT22;3016;50.308;8.258;2023-07-16T05:24:03;17.10;1.00
5980;DHT22;3016;50.308;8.258;2023-07-16T05:27:04;17.00;1.00
5980;DHT22;3016;50.308;8.258;2023-07-16T05:30:06;17.10;1.00
5980;DHT22;3016;50.308;8.258;2023-07-16T05:33:07;17.20;1.00
5980;DHT22;3016;50.308;8.258;2023-07-16T05:36:07;17.30;1.00
5980;DHT22;3016;50.308;8.258;2023-07-16T05:39:08;17.50;1.00
5980;DHT22;3016;50.308;8.258;2023-07-16T05:42:09;17.50;1.00
5980;DHT22;3016;50.308;8.258;2023-07-16T05:45:10;17.70;1.00
5980;DHT22;3016;50.308;8.258;2023-07-16T05:48:10;17.80;1.00
5980;DHT22;3016;50.308;8.258;2023-07-16T05:51:12;17.90;1.00
5980;DHT22;3016;50.308;8.258;2023-07-16T05:54:12;18.10;1.00
5980;DHT22;3016;50.308;8.258;2023-07-16T05:57:13;18.40;1.00
5980;DHT22;3016;50.308;8.258;2023-07-16T06:00:14;18.50;1.00
5980;DHT22;3016;50.308;8.258;2023-07-16T06:03:14;18.60;1.00
5980;DHT22;3016;50.308;8.258;2023-07-16T06:06:17;18.60;1.00
5980;DHT22;3016;50.308;8.258;2023-07-16T06:09:17;18.70;1.00
5980;DHT22;3016;50.308;8.258;2023-07-16T06:12:18;18.50;1.00
5980;DHT22;3016;50.308;8.258;2023-07-16T06:15:19;18.50;1.00
5980;DHT22;3016;50.308;8.258;2023-07-16T06:18:20;18.60;1.00
5980;DHT22;3016;50.308;8.258;2023-07-16T06:21:21;18.70;1.00
5980;DHT22;3016;50.308;8.258;2023-07-16T06:24:21;18.80;1.00
5980;DHT22;3016;50.308;8.258;2023-07-16T06:27:22;18.80;1.00
5980;DHT22;3016;50.308;8.258;2023-07-16T06:30:23;18.90;1.00
5980;DHT22;3016;50.308;8.258;2023-07-16T06:33:23;18.90;1.00
5980;DHT22;3016;50.308;8.258;2023-07-16T06:36:25;18.90;1.00
5980;DHT22;3016;50.308;8.258;2023-07-16T06:39:26;19.10;1.00
5980;DHT22;3016;50.308;8.258;2023-07-16T06:42:27;19.30;1.00
5980;DHT22;3016;50.308;8.258;2023-07-16T06:45:27;19.70;1.00
5980;DHT22;3016;50.308;8.258;2023-07-16T06:48:28;19.90;1.00
5980;DHT22;3016;50.308;8.258;2023-07-16T06:51:29;19.80;1.00
5980;DHT22;3016;50.308;8.258;2023-07-16T06:54:32;19.30;1.00
5980;DHT22;3016;50.308;8.258;2023-07-16T06:57:33;19.20;1.00
5980;DHT22;3016;50.308;8.258;2023-07-16T07:00:34;19.30;1.00
5980;DHT22;3016;50.308;8.258;2023-07-16T07:03:35;19.50;1.00
5980;DHT22;3016;50.308;8.258;2023-07-16T07:06:35;19.50;1.00
5980;DHT22;3016;50.308;8.258;2023-07-16T07:09:36;19.50;1.00
5980;DHT22;3016;50.308;8.258;2023-07-16T07:12:37;19.50;1.00
5980;DHT22;3016;50.308;8.258;2023-07-16T07:15:38;19.30;1.00
5980;DHT22;3016;50.308;8.258;2023-07-16T07:18:38;19.40;1.00
5980;DHT22;3016;50.308;8.258;2023-07-16T07:21:39;19.50;1.00
5980;DHT22;3016;50.308;8.258;2023-07-16T07:24:40;19.30;1.00
5980;DHT22;3016;50.308;8.258;2023-07-16T07:27:40;19.20;1.00
5980;DHT22;3016;50.308;8.258;2023-07-16T07:30:41;19.30;1.00
5980;DHT22;3016;50.308;8.258;2023-07-16T07:33:41;19.40;1.00
5980;DHT22;3016;50.308;8.258;2023-07-16T07:36:42;19.60;1.00
5980;DHT22;3016;50.308;8.258;2023-07-16T07:39:43;19.70;1.00
5980;DHT22;3016;50.308;8.258;2023-07-16T07:42:46;19.80;1.00
5980;DHT22;3016;50.308;8.258;2023-07-16T07:45:46;20.00;1.00
5980;DHT22;3016;50.308;8.258;2023-07-16T07:48:47;19.90;1.00
5980;DHT22;3016;50.308;8.258;2023-07-16T07:51:48;19.90;1.00
5980;DHT22;3016;50.308;8.258;2023-07-16T07:54:49;19.60;1.00
5980;DHT22;3016;50.308;8.258;2023-07-16T07:57:50;19.80;1.00
5980;DHT22;3016;50.308;8.258;2023-07-16T08:00:51;19.80;1.00
5980;DHT22;3016;50.308;8.258;2023-07-16T08:03:51;19.90;1.00
5980;DHT22;3016;50.308;8.258;2023-07-16T08:06:53;20.10;1.00
5980;DHT22;3016;50.308;8.258;2023-07-16T08:09:54;20.20;1.00
5980;DHT22;3016;50.308;8.258;2023-07-16T08:12:55;20.40;1.00
5980;DHT22;3016;50.308;8.258;2023-07-16T08:15:56;20.60;1.00
5980;DHT22;3016;50.308;8.258;2023-07-16T08:18:56;21.00;1.00
5980;DHT22;3016;50.308;8.258;2023-07-16T08:21:57;20.60;1.00
5980;DHT22;3016;50.308;8.258;2023-07-16T08:24:58;20.30;1.00
5980;DHT22;3016;50.308;8.258;2023-07-16T08:27:58;20.20;1.00
5980;DHT22;3016;50.308;8.258;2023-07-16T08:31:02;20.00;1.00
5980;DHT22;3016;50.308;8.258;2023-07-16T08:34:02;20.20;1.00
5980;DHT22;3016;50.308;8.258;2023-07-16T08:37:03;20.50;1.00
5980;DHT22;3016;50.308;8.258;2023-07-16T08:40:05;20.60;1.00
5980;DHT22;3016;50.308;8.258;2023-07-16T08:43:06;21.00;1.00
5980;DHT22;3016;50.308;8.258;2023-07-16T08:46:12;21.10;1.00
5980;DHT22;3016;50.308;8.258;2023-07-16T08:49:16;21.20;1.00
5980;DHT22;3016;50.308;8.258;2023-07-16T08:52:19;21.50;1.00
5980;DHT22;3016;50.308;8.258;2023-07-16T08:55:19;21.60;1.00
5980;DHT22;3016;50.308;8.258;2023-07-16T08:58:23;21.50;1.00
5980;DHT22;3016;50.308;8.258;2023-07-16T09:01:24;21.60;1.00
5980;DHT22;3016;50.308;8.258;2023-07-16T09:04:25;21.40;1.00
5980;DHT22;3016;50.308;8.258;2023-07-16T09:07:26;21.40;1.00
5980;DHT22;3016;50.308;8.258;2023-07-16T09:10:26;22.00;1.00
5980;DHT22;3016;50.308;8.258;2023-07-16T09:13:29;22.00;1.00
5980;DHT22;3016;50.308;8.258;2023-07-16T09:16:33;22.00;1.00
5980;DHT22;3016;50.308;8.258;2023-07-16T09:19:34;22.30;1.00
5980;DHT22;3016;50.308;8.258;2023-07-16T09:22:36;22.50;1.00
5980;DHT22;3016;50.308;8.258;2023-07-16T09:25:38;22.60;1.00
5980;DHT22;3016;50.308;8.258;2023-07-16T09:28:40;22.80;1.00
5980;DHT22;3016;50.308;8.258;2023-07-16T09:32:01;22.50;1.00
5980;DHT22;3016;50.308;8.258;2023-07-16T09:35:16;22.40;1.00
5980;DHT22;3016;50.308;8.258;2023-07-16T09:38:18;22.20;1.00
5980;DHT22;3016;50.308;8.258;2023-07-16T09:41:20;22.40;1.00
5980;DHT22;3016;50.308;8.258;2023-07-16T09:44:21;22.70;1.00
5980;DHT22;3016;50.308;8.258;2023-07-16T09:47:22;22.70;1.00
5980;DHT22;3016;50.308;8.258;2023-07-16T09:50:28;22.60;1.00
5980;DHT22;3016;50.308;8.258;2023-07-16T09:53:35;22.60;1.00
5980;DHT22;3016;50.308;8.258;2023-07-16T09:56:39;22.80;1.00
5980;DHT22;3016;50.308;8.258;2023-07-16T09:59:42;22.70;1.00
5980;DHT22;3016;50.308;8.258;2023-07-16T10:02:44;22.70;1.00
5980;DHT22;3016;50.308;8.258;2023-07-16T10:05:45;23.00;1.00
5980;DHT22;3016;50.308;8.258;2023-07-16T10:08:49;22.90;1.00
5980;DHT22;3016;50.308;8.258;2023-07-16T10:11:51;23.40;1.00
5980;DHT22;3016;50.308;8.258;2023-07-16T10:14:53;23.40;1.00
5980;DHT22;3016;50.308;8.258;2023-07-16T10:17:57;22.70;1.00
5980;DHT22;3016;50.308;8.258;2023-07-16T10:21:06;22.70;1.00
5980;DHT22;3016;50.308;8.258;2023-07-16T10:24:16;22.70;1.00
5980;DHT22;3016;50.308;8.258;2023-07-16T10:27:27;22.80;1.00
5980;DHT22;3016;50.308;8.258;2023-07-16T10:30:33;22.70;1.00
5980;DHT22;3016;50.308;8.258;2023-07-16T10:33:34;22.90;1.00
5980;DHT22;3016;50.308;8.258;2023-07-16T10:36:39;22.90;1.00
5980;DHT22;3016;50.308;8.258;2023-07-16T10:39:51;22.90;1.00
5980;DHT22;3016;50.308;8.258;2023-07-16T10:42:53;23.10;1.00
5980;DHT22;3016;50.308;8.258;2023-07-16T10:45:53;23.40;1.00
5980;DHT22;3016;50.308;8.258;2023-07-16T10:48:54;23.60;1.00
5980;DHT22;3016;50.308;8.258;2023-07-16T10:51:55;23.10;1.00
5980;DHT22;3016;50.308;8.258;2023-07-16T10:54:55;23.10;1.00
5980;DHT22;3016;50.308;8.258;2023-07-16T10:57:58;22.80;1.00
5980;DHT22;3016;50.308;8.258;2023-07-16T11:00:59;22.80;1.00
5980;DHT22;3016;50.308;8.258;2023-07-16T11:04:00;23.00;1.00
5980;DHT22;3016;50.308;8.258;2023-07-16T11:07:09;23.10;1.00
5980;DHT22;3016;50.308;8.258;2023-07-16T11:10:18;23.20;1.00
5980;DHT22;3016;50.308;8.258;2023-07-16T11:13:18;23.00;1.00
5980;DHT22;3016;50.308;8.258;2023-07-16T11:16:19;22.80;1.00
5980;DHT22;3016;50.308;8.258;2023-07-16T11:19:20;22.70;1.00
5980;DHT22;3016;50.308;8.258;2023-07-16T11:22:25;22.50;1.00
5980;DHT22;3016;50.308;8.258;2023-07-16T11:25:27;22.50;1.00
5980;DHT22;3016;50.308;8.258;2023-07-16T11:28:36;22.50;1.00
5980;DHT22;3016;50.308;8.258;2023-07-16T11:31:39;22.70;1.00
5980;DHT22;3016;50.308;8.258;2023-07-16T11:34:53;23.00;1.00
5980;DHT22;3016;50.308;8.258;2023-07-16T11:37:54;22.90;1.00
5980;DHT22;3016;50.308;8.258;2023-07-16T11:40:55;22.90;1.00
5980;DHT22;3016;50.308;8.258;2023-07-16T11:44:00;22.80;1.00
5980;DHT22;3016;50.308;8.258;2023-07-16T11:47:03;22.70;1.00
5980;DHT22;3016;50.308;8.258;2023-07-16T11:50:04;22.80;1.00
5980;DHT22;3016;50.308;8.258;2023-07-16T11:53:06;23.20;1.00
5980;DHT22;3016;50.308;8.258;2023-07-16T11:56:06;23.40;1.00
5980;DHT22;3016;50.308;8.258;2023-07-16T11:59:07;23.70;1.00
5980;DHT22;3016;50.308;8.258;2023-07-16T12:02:09;24.00;1.00
5980;DHT22;3016;50.308;8.258;2023-07-16T12:05:09;24.20;1.00
5980;DHT22;3016;50.308;8.258;2023-07-16T12:08:10;24.40;1.00
5980;DHT22;3016;50.308;8.258;2023-07-16T12:11:14;24.20;1.00
5980;DHT22;3016;50.308;8.258;2023-07-16T12:14:15;24.00;1.00
5980;DHT22;3016;50.308;8.258;2023-07-16T12:17:15;24.00;1.00
5980;DHT22;3016;50.308;8.258;2023-07-16T12:20:16;24.20;1.00
5980;DHT22;3016;50.308;8.258;2023-07-16T12:23:17;24.20;1.00
5980;DHT22;3016;50.308;8.258;2023-07-16T12:26:17;24.50;1.00
5980;DHT22;3016;50.308;8.258;2023-07-16T12:29:18;24.60;1.00
5980;DHT22;3016;50.308;8.258;2023-07-16T12:32:19;24.70;1.00
5980;DHT22;3016;50.308;8.258;2023-07-16T12:35:20;24.60;1.00
5980;DHT22;3016;50.308;8.258;2023-07-16T12:38:21;24.60;1.00
5980;DHT22;3016;50.308;8.258;2023-07-16T12:41:23;24.70;1.00
5980;DHT22;3016;50.308;8.258;2023-07-16T12:44:23;24.80;1.00
5980;DHT22;3016;50.308;8.258;2023-07-16T12:47:24;24.90;1.00
5980;DHT22;3016;50.308;8.258;2023-07-16T12:50:25;24.90;1.00
5980;DHT22;3016;50.308;8.258;2023-07-16T12:53:28;24.80;1.00
5980;DHT22;3016;50.308;8.258;2023-07-16T12:56:29;24.40;1.00
5980;DHT22;3016;50.308;8.258;2023-07-16T12:59:31;24.20;1.00
5980;DHT22;3016;50.308;8.258;2023-07-16T13:02:31;24.20;1.00
5980;DHT22;3016;50.308;8.258;2023-07-16T13:05:32;24.10;1.00
5980;DHT22;3016;50.308;8.258;2023-07-16T13:08:33;24.00;1.00
5980;DHT22;3016;50.308;8.258;2023-07-16T13:11:34;23.90;1.00
5980;DHT22;3016;50.308;8.258;2023-07-16T13:14:35;24.00;1.00
5980;DHT22;3016;50.308;8.258;2023-07-16T13:17:36;24.30;1.00
5980;DHT22;3016;50.308;8.258;2023-07-16T13:20:38;24.80;1.00
5980;DHT22;3016;50.308;8.258;2023-07-16T13:23:38;25.20;1.00
5980;DHT22;3016;50.308;8.258;2023-07-16T13:26:39;25.10;1.00
5980;DHT22;3016;50.308;8.258;2023-07-16T13:29:40;25.40;1.00
5980;DHT22;3016;50.308;8.258;2023-07-16T13:32:40;25.60;1.00
5980;DHT22;3016;50.308;8.258;2023-07-16T13:35:41;25.50;1.00
5980;DHT22;3016;50.308;8.258;2023-07-16T13:38:42;25.20;1.00
5980;DHT22;3016;50.308;8.258;2023-07-16T13:41:43;24.80;1.00
5980;DHT22;3016;50.308;8.258;2023-07-16T13:44:43;24.40;1.00
5980;DHT22;3016;50.308;8.258;2023-07-16T13:47:44;24.30;1.00
5980;DHT22;3016;50.308;8.258;2023-07-16T13:50:45;24.40;1.00
5980;DHT22;3016;50.308;8.258;2023-07-16T13:53:46;24.40;1.00
5980;DHT22;3016;50.308;8.258;2023-07-16T13:56:47;24.40;1.00
5980;DHT22;3016;50.308;8.258;2023-07-16T13:59:48;24.40;1.00
5980;DHT22;3016;50.308;8.258;2023-07-16T14:02:49;24.40;1.00
5980;DHT22;3016;50.308;8.258;2023-07-16T14:05:50;24.30;1.00
5980;DHT22;3016;50.308;8.258;2023-07-16T14:08:50;24.30;1.00
5980;DHT22;3016;50.308;8.258;2023-07-16T14:11:51;24.40;1.00
5980;DHT22;3016;50.308;8.258;2023-07-16T14:14:52;24.60;1.00
5980;DHT22;3016;50.308;8.258;2023-07-16T14:17:52;24.70;1.00
5980;DHT22;3016;50.308;8.258;2023-07-16T14:20:53;24.90;1.00
5980;DHT22;3016;50.308;8.258;2023-07-16T14:23:54;24.70;1.00
5980;DHT22;3016;50.308;8.258;2023-07-16T14:26:58;24.50;1.00
5980;DHT22;3016;50.308;8.258;2023-07-16T14:30:00;24.40;1.00
5980;DHT22;3016;50.308;8.258;2023-07-16T14:33:01;24.30;1.00
5980;DHT22;3016;50.308;8.258;2023-07-16T14:36:05;24.40;1.00
5980;DHT22;3016;50.308;8.258;2023-07-16T14:39:05;24.20;1.00
5980;DHT22;3016;50.308;8.258;2023-07-16T14:42:06;24.20;1.00
5980;DHT22;3016;50.308;8.258;2023-07-16T14:45:07;24.20;1.00
5980;DHT22;3016;50.308;8.258;2023-07-16T14:48:09;24.20;1.00
5980;DHT22;3016;50.308;8.258;2023-07-16T14:51:11;24.40;1.00
5980;DHT22;3016;50.308;8.258;2023-07-16T14:54:12;24.50;1.00
5980;DHT22;3016;50.308;8.258;2023-07-16T14:57:12;24.70;1.00
5980;DHT22;3016;50.308;8.258;2023-07-16T15:00:13;24.60;1.00
5980;DHT22;3016;50.308;8.258;2023-07-16T15:03:14;24.60;1.00
5980;DHT22;3016;50.308;8.258;2023-07-16T15:06:15;24.50;1.00
5980;DHT22;3016;50.308;8.258;2023-07-16T15:09:16;24.50;1.00
5980;DHT22;3016;50.308;8.258;2023-07-16T15:12:17;24.30;1.00
5980;DHT22;3016;50.308;8.258;2023-07-16T15:15:17;24.20;1.00
5980;DHT22;3016;50.308;8.258;2023-07-16T15:18:19;24.20;1.00
5980;DHT22;3016;50.308;8.258;2023-07-16T15:21:20;24.40;1.00
5980;DHT22;3016;50.308;8.258;2023-07-16T15:24:21;24.60;1.00
5980;DHT22;3016;50.308;8.258;2023-07-16T15:27:22;24.50;1.00
5980;DHT22;3016;50.308;8.258;2023-07-16T15:30:24;24.80;1.00
5980;DHT22;3016;50.308;8.258;2023-07-16T15:33:24;25.00;1.00
5980;DHT22;3016;50.308;8.258;2023-07-16T15:36:28;25.20;1.00
5980;DHT22;3016;50.308;8.258;2023-07-16T15:39:29;25.20;1.00
5980;DHT22;3016;50.308;8.258;2023-07-16T15:42:31;25.20;1.00
5980;DHT22;3016;50.308;8.258;2023-07-16T15:45:31;24.70;1.00
5980;DHT22;3016;50.308;8.258;2023-07-16T15:48:32;24.60;1.00
5980;DHT22;3016;50.308;8.258;2023-07-16T15:51:33;24.70;1.00
5980;DHT22;3016;50.308;8.258;2023-07-16T15:54:36;25.10;1.00
5980;DHT22;3016;50.308;8.258;2023-07-16T15:57:37;25.30;1.00
5980;DHT22;3016;50.308;8.258;2023-07-16T16:00:37;25.30;1.00
5980;DHT22;3016;50.308;8.258;2023-07-16T16:03:38;25.50;1.00
5980;DHT22;3016;50.308;8.258;2023-07-16T16:06:39;25.30;1.00
5980;DHT22;3016;50.308;8.258;2023-07-16T16:09:39;25.30;1.00
5980;DHT22;3016;50.308;8.258;2023-07-16T16:12:40;25.30;1.00
5980;DHT22;3016;50.308;8.258;2023-07-16T16:15:42;25.10;1.00
5980;DHT22;3016;50.308;8.258;2023-07-16T16:18:43;24.80;1.00
5980;DHT22;3016;50.308;8.258;2023-07-16T16:21:44;24.60;1.00
5980;DHT22;3016;50.308;8.258;2023-07-16T16:24:44;24.50;1.00
5980;DHT22;3016;50.308;8.258;2023-07-16T16:27:45;24.50;1.00
5980;DHT22;3016;50.308;8.258;2023-07-16T16:30:46;24.40;1.00
5980;DHT22;3016;50.308;8.258;2023-07-16T16:33:47;24.50;1.00
5980;DHT22;3016;50.308;8.258;2023-07-16T16:36:47;24.60;1.00
5980;DHT22;3016;50.308;8.258;2023-07-16T16:39:50;24.50;1.00
5980;DHT22;3016;50.308;8.258;2023-07-16T16:42:50;24.30;1.00
5980;DHT22;3016;50.308;8.258;2023-07-16T16:45:51;24.10;1.00
5980;DHT22;3016;50.308;8.258;2023-07-16T16:48:52;23.90;1.00
5980;DHT22;3016;50.308;8.258;2023-07-16T16:51:53;23.90;1.00
5980;DHT22;3016;50.308;8.258;2023-07-16T16:54:54;24.30;1.00
5980;DHT22;3016;50.308;8.258;2023-07-16T16:57:55;24.70;1.00
5980;DHT22;3016;50.308;8.258;2023-07-16T17:00:56;24.90;1.00
5980;DHT22;3016;50.308;8.258;2023-07-16T17:03:56;25.30;1.00
5980;DHT22;3016;50.308;8.258;2023-07-16T17:06:57;25.50;1.00
5980;DHT22;3016;50.308;8.258;2023-07-16T17:09:59;25.60;1.00
5980;DHT22;3016;50.308;8.258;2023-07-16T17:12:59;25.70;1.00
5980;DHT22;3016;50.308;8.258;2023-07-16T17:16:00;25.50;1.00
5980;DHT22;3016;50.308;8.258;2023-07-16T17:19:01;25.20;1.00
5980;DHT22;3016;50.308;8.258;2023-07-16T17:22:03;24.90;1.00
5980;DHT22;3016;50.308;8.258;2023-07-16T17:25:04;24.90;1.00
5980;DHT22;3016;50.308;8.258;2023-07-16T17:28:08;25.10;1.00
5980;DHT22;3016;50.308;8.258;2023-07-16T17:31:09;25.30;1.00
5980;DHT22;3016;50.308;8.258;2023-07-16T17:34:10;25.50;1.00
5980;DHT22;3016;50.308;8.258;2023-07-16T17:37:10;25.60;1.00
5980;DHT22;3016;50.308;8.258;2023-07-16T17:40:11;25.70;1.00
5980;DHT22;3016;50.308;8.258;2023-07-16T17:43:12;25.70;1.00
5980;DHT22;3016;50.308;8.258;2023-07-16T17:46:13;25.70;1.00
5980;DHT22;3016;50.308;8.258;2023-07-16T17:49:13;25.60;1.00
5980;DHT22;3016;50.308;8.258;2023-07-16T17:52:14;25.50;1.00
5980;DHT22;3016;50.308;8.258;2023-07-16T17:55:15;25.50;1.00
5980;DHT22;3016;50.308;8.258;2023-07-16T17:58:15;25.60;1.00
5980;DHT22;3016;50.308;8.258;2023-07-16T18:01:16;25.50;1.00
5980;DHT22;3016;50.308;8.258;2023-07-16T18:04:18;25.20;1.00
5980;DHT22;3016;50.308;8.258;2023-07-16T18:07:19;25.10;1.00
5980;DHT22;3016;50.308;8.258;2023-07-16T18:10:22;25.20;1.00
5980;DHT22;3016;50.308;8.258;2023-07-16T18:13:23;25.30;1.00
5980;DHT22;3016;50.308;8.258;2023-07-16T18:16:24;25.30;1.00
5980;DHT22;3016;50.308;8.258;2023-07-16T18:19:25;25.20;1.00
5980;DHT22;3016;50.308;8.258;2023-07-16T18:22:26;25.00;1.00
5980;DHT22;3016;50.308;8.258;2023-07-16T18:25:27;24.70;1.00
5980;DHT22;3016;50.308;8.258;2023-07-16T18:28:28;24.40;1.00
5980;DHT22;3016;50.308;8.258;2023-07-16T18:31:29;24.10;1.00
5980;DHT22;3016;50.308;8.258;2023-07-16T18:34:30;23.80;1.00
5980;DHT22;3016;50.308;8.258;2023-07-16T18:37:30;23.70;1.00
5980;DHT22;3016;50.308;8.258;2023-07-16T18:40:31;23.60;1.00
5980;DHT22;3016;50.308;8.258;2023-07-16T18:43:32;23.60;1.00
5980;DHT22;3016;50.308;8.258;2023-07-16T18:46:33;23.50;1.00
5980;DHT22;3016;50.308;8.258;2023-07-16T18:49:34;23.30;1.00
5980;DHT22;3016;50.308;8.258;2023-07-16T18:52:35;23.30;1.00
5980;DHT22;3016;50.308;8.258;2023-07-16T18:55:36;23.20;1.00
5980;DHT22;3016;50.308;8.258;2023-07-16T18:58:36;23.10;1.00
5980;DHT22;3016;50.308;8.258;2023-07-16T19:01:37;23.00;1.00
5980;DHT22;3016;50.308;8.258;2023-07-16T19:04:38;23.00;1.00
5980;DHT22;3016;50.308;8.258;2023-07-16T19:07:39;22.90;1.00
5980;DHT22;3016;50.308;8.258;2023-07-16T19:10:39;22.70;1.00
5980;DHT22;3016;50.308;8.258;2023-07-16T19:13:40;22.70;1.00
5980;DHT22;3016;50.308;8.258;2023-07-16T19:16:41;22.60;1.00
5980;DHT22;3016;50.308;8.258;2023-07-16T19:19:43;22.50;1.00
5980;DHT22;3016;50.308;8.258;2023-07-16T19:22:44;22.50;1.00
5980;DHT22;3016;50.308;8.258;2023-07-16T19:25:44;22.40;1.00
5980;DHT22;3016;50.308;8.258;2023-07-16T19:28:45;22.20;1.00
5980;DHT22;3016;50.308;8.258;2023-07-16T19:31:46;22.00;1.00
5980;DHT22;3016;50.308;8.258;2023-07-16T19:34:49;21.90;1.00
5980;DHT22;3016;50.308;8.258;2023-07-16T19:37:55;21.70;1.00
5980;DHT22;3016;50.308;8.258;2023-07-16T19:40:56;21.60;1.00
5980;DHT22;3016;50.308;8.258;2023-07-16T19:43:56;21.50;1.00
5980;DHT22;3016;50.308;8.258;2023-07-16T19:46:57;21.30;1.00
5980;DHT22;3016;50.308;8.258;2023-07-16T19:49:58;21.20;1.00
5980;DHT22;3016;50.308;8.258;2023-07-16T19:53:00;21.10;1.00
5980;DHT22;3016;50.308;8.258;2023-07-16T19:56:01;21.00;1.00
5980;DHT22;3016;50.308;8.258;2023-07-16T19:59:01;20.80;1.00
5980;DHT22;3016;50.308;8.258;2023-07-16T20:02:03;20.60;1.00
5980;DHT22;3016;50.308;8.258;2023-07-16T20:05:05;20.50;1.00
5980;DHT22;3016;50.308;8.258;2023-07-16T20:08:08;20.30;1.00
5980;DHT22;3016;50.308;8.258;2023-07-16T20:11:15;20.10;1.00